sensor_id;sensor_type;location;lat;lon;timestamp;pressure;altitude;pressure_sealevel;temperature;humidity
33151;BME280;19508;42.578;23.416;2023-03-03T00:02:17;93725.78;;;5.40;75.45
33151;BME280;19508;42.578;23.416;2023-03-03T00:04:43;93716.00;;;5.33;76.03
33151;BME280;19508;42.578;23.416;2023-03-03T00:07:08;93719.31;;;5.29;76.21
33151;BME280;19508;42.578;23.416;2023-03-03T00:09:34;93713.63;;;5.25;76.39
33151;BME280;19508;42.578;23.416;2023-03-03T00:12:01;93709.84;;;5.33;75.71
33151;BME280;19508;42.578;23.416;2023-03-03T00:14:37;93695.38;;;5.41;75.44
33151;BME280;19508;42.578;23.416;2023-03-03T00:17:17;93708.53;;;5.54;75.28
33151;BME280;19508;42.578;23.416;2023-03-03T00:19:45;93694.47;;;5.28;75.58
33151;BME280;19508;42.578;23.416;2023-03-03T00:22:35;93706.78;;;5.48;75.64
33151;BME280;19508;42.578;23.416;2023-03-03T00:25:24;93709.31;;;5.43;75.71
33151;BME280;19508;42.578;23.416;2023-03-03T00:27:51;93704.13;;;5.29;75.95
33151;BME280;19508;42.578;23.416;2023-03-03T00:30:27;93705.91;;;5.35;75.72
33151;BME280;19508;42.578;23.416;2023-03-03T00:32:53;93707.38;;;5.50;74.97
33151;BME280;19508;42.578;23.416;2023-03-03T00:35:30;93697.22;;;5.40;75.61
33151;BME280;19508;42.578;23.416;2023-03-03T00:38:01;93679.97;;;5.24;75.57
33151;BME280;19508;42.578;23.416;2023-03-03T00:40:38;93692.56;;;5.35;75.56
33151;BME280;19508;42.578;23.416;2023-03-03T00:43:21;93686.31;;;5.42;75.40
33151;BME280;19508;42.578;23.416;2023-03-03T00:45:51;93680.00;;;5.36;75.77
33151;BME280;19508;42.578;23.416;2023-03-03T00:48:23;93682.06;;;5.22;75.99
33151;BME280;19508;42.578;23.416;2023-03-03T00:50:50;93677.06;;;5.26;75.84
33151;BME280;19508;42.578;23.416;2023-03-03T00:53:17;93677.41;;;5.29;76.12
33151;BME280;19508;42.578;23.416;2023-03-03T00:55:45;93670.59;;;5.33;76.07
33151;BME280;19508;42.578;23.416;2023-03-03T00:58:12;93669.28;;;5.24;75.96
33151;BME280;19508;42.578;23.416;2023-03-03T01:00:38;93662.75;;;5.20;76.23
33151;BME280;19508;42.578;23.416;2023-03-03T01:03:06;93659.94;;;5.33;75.95
33151;BME280;19508;42.578;23.416;2023-03-03T01:05:32;93650.72;;;5.29;75.52
33151;BME280;19508;42.578;23.416;2023-03-03T01:07:58;93651.38;;;5.43;75.09
33151;BME280;19508;42.578;23.416;2023-03-03T01:10:25;93652.72;;;5.34;75.79
33151;BME280;19508;42.578;23.416;2023-03-03T01:12:51;93651.47;;;5.36;75.79
33151;BME280;19508;42.578;23.416;2023-03-03T01:15:16;93656.53;;;5.26;75.98
33151;BME280;19508;42.578;23.416;2023-03-03T01:17:42;93646.13;;;5.36;75.92
33151;BME280;19508;42.578;23.416;2023-03-03T01:20:10;93646.19;;;5.48;75.52
33151;BME280;19508;42.578;23.416;2023-03-03T01:22:36;93647.47;;;5.27;75.83
33151;BME280;19508;42.578;23.416;2023-03-03T01:25:01;93642.44;;;5.19;76.34
33151;BME280;19508;42.578;23.416;2023-03-03T01:27:29;93633.53;;;5.25;76.24
33151;BME280;19508;42.578;23.416;2023-03-03T01:29:54;93633.84;;;5.17;76.11
33151;BME280;19508;42.578;23.416;2023-03-03T01:32:21;93634.59;;;5.24;76.59
33151;BME280;19508;42.578;23.416;2023-03-03T01:34:47;93628.19;;;5.25;76.39
33151;BME280;19508;42.578;23.416;2023-03-03T01:37:12;93628.19;;;5.25;76.34
33151;BME280;19508;42.578;23.416;2023-03-03T01:39:38;93634.84;;;5.34;75.88
33151;BME280;19508;42.578;23.416;2023-03-03T01:42:03;93630.09;;;5.36;75.85
33151;BME280;19508;42.578;23.416;2023-03-03T01:44:29;93632.53;;;5.38;75.51
33151;BME280;19508;42.578;23.416;2023-03-03T01:47:04;93630.38;;;5.47;75.66
33151;BME280;19508;42.578;23.416;2023-03-03T01:49:40;93618.78;;;5.53;75.01
33151;BME280;19508;42.578;23.416;2023-03-03T01:54:54;93615.53;;;5.51;74.96
33151;BME280;19508;42.578;23.416;2023-03-03T01:57:28;93613.44;;;5.53;75.00
33151;BME280;19508;42.578;23.416;2023-03-03T01:59:57;93621.47;;;5.53;74.73
33151;BME280;19508;42.578;23.416;2023-03-03T02:02:26;93617.38;;;5.38;75.27
33151;BME280;19508;42.578;23.416;2023-03-03T02:04:52;93625.22;;;5.33;75.43
33151;BME280;19508;42.578;23.416;2023-03-03T02:07:18;93623.31;;;5.52;75.16
33151;BME280;19508;42.578;23.416;2023-03-03T02:17:47;93627.03;;;5.21;75.24
33151;BME280;19508;42.578;23.416;2023-03-03T02:28:23;93625.69;;;5.30;74.51
33151;BME280;19508;42.578;23.416;2023-03-03T02:30:54;93619.88;;;5.33;74.50
33151;BME280;19508;42.578;23.416;2023-03-03T02:33:20;93630.03;;;5.43;73.87
33151;BME280;19508;42.578;23.416;2023-03-03T02:35:45;93620.34;;;5.30;74.06
33151;BME280;19508;42.578;23.416;2023-03-03T02:38:27;93612.72;;;5.46;73.42
33151;BME280;19508;42.578;23.416;2023-03-03T02:41:03;93622.28;;;5.53;73.12
33151;BME280;19508;42.578;23.416;2023-03-03T02:46:26;93618.59;;;5.66;72.69
33151;BME280;19508;42.578;23.416;2023-03-03T02:48:51;93614.56;;;5.75;72.17
33151;BME280;19508;42.578;23.416;2023-03-03T02:51:17;93606.66;;;5.69;72.42
33151;BME280;19508;42.578;23.416;2023-03-03T02:53:43;93624.78;;;5.78;71.92
33151;BME280;19508;42.578;23.416;2023-03-03T02:56:08;93620.16;;;5.74;72.39
33151;BME280;19508;42.578;23.416;2023-03-03T02:58:35;93616.78;;;5.78;72.34
33151;BME280;19508;42.578;23.416;2023-03-03T03:01:01;93614.50;;;5.93;71.94
33151;BME280;19508;42.578;23.416;2023-03-03T03:03:26;93615.81;;;5.91;71.78
33151;BME280;19508;42.578;23.416;2023-03-03T03:05:52;93617.66;;;5.90;71.68
33151;BME280;19508;42.578;23.416;2023-03-03T03:08:17;93618.81;;;5.94;71.94
33151;BME280;19508;42.578;23.416;2023-03-03T03:10:42;93608.03;;;5.71;72.18
33151;BME280;19508;42.578;23.416;2023-03-03T03:13:08;93618.72;;;5.71;72.81
33151;BME280;19508;42.578;23.416;2023-03-03T03:15:35;93621.50;;;5.64;73.33
33151;BME280;19508;42.578;23.416;2023-03-03T03:18:00;93609.72;;;5.54;73.82
33151;BME280;19508;42.578;23.416;2023-03-03T03:20:26;93611.19;;;5.68;73.40
33151;BME280;19508;42.578;23.416;2023-03-03T03:22:51;93604.28;;;5.60;73.69
33151;BME280;19508;42.578;23.416;2023-03-03T03:25:17;93619.03;;;5.63;74.31
33151;BME280;19508;42.578;23.416;2023-03-03T03:27:42;93601.88;;;5.59;74.46
33151;BME280;19508;42.578;23.416;2023-03-03T03:30:08;93610.59;;;5.66;74.32
33151;BME280;19508;42.578;23.416;2023-03-03T03:32:34;93612.31;;;5.60;74.63
33151;BME280;19508;42.578;23.416;2023-03-03T03:34:59;93612.28;;;5.49;75.21
33151;BME280;19508;42.578;23.416;2023-03-03T03:37:24;93605.00;;;5.56;75.18
33151;BME280;19508;42.578;23.416;2023-03-03T03:39:50;93605.56;;;5.58;75.03
33151;BME280;19508;42.578;23.416;2023-03-03T03:42:15;93601.47;;;5.55;75.22
33151;BME280;19508;42.578;23.416;2023-03-03T03:44:41;93586.97;;;5.51;75.14
33151;BME280;19508;42.578;23.416;2023-03-03T03:47:06;93608.91;;;5.53;75.43
33151;BME280;19508;42.578;23.416;2023-03-03T03:49:32;93600.19;;;5.46;75.97
33151;BME280;19508;42.578;23.416;2023-03-03T03:51:57;93600.06;;;5.41;76.39
33151;BME280;19508;42.578;23.416;2023-03-03T03:54:22;93601.13;;;5.40;76.55
33151;BME280;19508;42.578;23.416;2023-03-03T03:56:48;93596.97;;;5.26;76.51
33151;BME280;19508;42.578;23.416;2023-03-03T03:59:13;93594.47;;;5.31;76.60
33151;BME280;19508;42.578;23.416;2023-03-03T04:01:39;93591.81;;;5.13;77.38
33151;BME280;19508;42.578;23.416;2023-03-03T04:04:04;93593.03;;;5.28;76.85
33151;BME280;19508;42.578;23.416;2023-03-03T04:06:30;93591.66;;;5.26;76.90
33151;BME280;19508;42.578;23.416;2023-03-03T04:08:55;93580.69;;;5.16;77.23
33151;BME280;19508;42.578;23.416;2023-03-03T04:11:21;93584.84;;;5.12;77.43
33151;BME280;19508;42.578;23.416;2023-03-03T04:13:47;93590.28;;;5.05;77.78
33151;BME280;19508;42.578;23.416;2023-03-03T04:16:12;93585.91;;;4.92;78.35
33151;BME280;19508;42.578;23.416;2023-03-03T04:18:38;93598.44;;;4.92;79.14
33151;BME280;19508;42.578;23.416;2023-03-03T04:21:04;93601.41;;;4.84;79.29
33151;BME280;19508;42.578;23.416;2023-03-03T04:23:29;93590.00;;;4.76;79.50
33151;BME280;19508;42.578;23.416;2023-03-03T04:25:54;93582.28;;;4.87;79.31
33151;BME280;19508;42.578;23.416;2023-03-03T04:28:20;93586.81;;;4.86;79.63
33151;BME280;19508;42.578;23.416;2023-03-03T04:30:46;93591.72;;;4.89;79.87
33151;BME280;19508;42.578;23.416;2023-03-03T04:33:11;93590.91;;;4.89;79.63
33151;BME280;19508;42.578;23.416;2023-03-03T04:35:37;93596.97;;;4.96;79.41
33151;BME280;19508;42.578;23.416;2023-03-03T04:38:02;93588.13;;;4.95;79.68
33151;BME280;19508;42.578;23.416;2023-03-03T04:40:29;93578.59;;;4.88;79.80
33151;BME280;19508;42.578;23.416;2023-03-03T04:42:54;93582.16;;;4.81;79.98
33151;BME280;19508;42.578;23.416;2023-03-03T04:45:20;93586.16;;;4.91;80.21
33151;BME280;19508;42.578;23.416;2023-03-03T04:47:45;93574.31;;;4.68;80.44
33151;BME280;19508;42.578;23.416;2023-03-03T04:50:11;93586.28;;;4.77;80.42
33151;BME280;19508;42.578;23.416;2023-03-03T04:52:37;93587.78;;;4.73;80.78
33151;BME280;19508;42.578;23.416;2023-03-03T04:55:03;93577.47;;;4.77;80.64
33151;BME280;19508;42.578;23.416;2023-03-03T04:57:28;93582.22;;;4.75;80.62
33151;BME280;19508;42.578;23.416;2023-03-03T04:59:54;93597.72;;;4.85;80.75
33151;BME280;19508;42.578;23.416;2023-03-03T05:02:20;93597.88;;;4.90;80.34
33151;BME280;19508;42.578;23.416;2023-03-03T05:04:45;93589.06;;;4.89;80.48
33151;BME280;19508;42.578;23.416;2023-03-03T05:07:11;93591.94;;;4.88;80.70
33151;BME280;19508;42.578;23.416;2023-03-03T05:09:39;93591.63;;;4.96;80.53
33151;BME280;19508;42.578;23.416;2023-03-03T05:12:05;93598.50;;;5.03;80.79
33151;BME280;19508;42.578;23.416;2023-03-03T05:14:30;93588.97;;;4.96;80.75
33151;BME280;19508;42.578;23.416;2023-03-03T05:16:56;93595.25;;;5.01;81.19
33151;BME280;19508;42.578;23.416;2023-03-03T05:19:21;93599.69;;;5.07;80.45
33151;BME280;19508;42.578;23.416;2023-03-03T05:21:48;93599.78;;;5.01;80.86
33151;BME280;19508;42.578;23.416;2023-03-03T05:24:13;93595.25;;;5.01;80.70
33151;BME280;19508;42.578;23.416;2023-03-03T05:26:39;93591.03;;;4.94;80.86
33151;BME280;19508;42.578;23.416;2023-03-03T05:29:06;93600.19;;;5.16;80.96
33151;BME280;19508;42.578;23.416;2023-03-03T05:31:31;93605.94;;;5.31;80.49
33151;BME280;19508;42.578;23.416;2023-03-03T05:33:57;93606.03;;;5.25;81.02
33151;BME280;19508;42.578;23.416;2023-03-03T05:36:23;93592.94;;;5.35;80.24
33151;BME280;19508;42.578;23.416;2023-03-03T05:38:48;93608.00;;;5.29;80.40
33151;BME280;19508;42.578;23.416;2023-03-03T05:41:14;93589.13;;;5.31;80.39
33151;BME280;19508;42.578;23.416;2023-03-03T05:43:39;93589.28;;;5.48;80.22
33151;BME280;19508;42.578;23.416;2023-03-03T05:46:04;93584.59;;;5.31;80.19
33151;BME280;19508;42.578;23.416;2023-03-03T05:48:30;93609.00;;;5.47;79.89
33151;BME280;19508;42.578;23.416;2023-03-03T05:50:58;93609.19;;;5.63;79.60
33151;BME280;19508;42.578;23.416;2023-03-03T05:53:26;93615.78;;;5.61;78.99
33151;BME280;19508;42.578;23.416;2023-03-03T05:55:51;93617.88;;;5.59;79.35
33151;BME280;19508;42.578;23.416;2023-03-03T05:58:17;93599.78;;;5.61;79.19
33151;BME280;19508;42.578;23.416;2023-03-03T06:00:42;93614.00;;;5.73;79.49
33151;BME280;19508;42.578;23.416;2023-03-03T06:03:08;93615.63;;;5.74;78.82
33151;BME280;19508;42.578;23.416;2023-03-03T06:05:33;93598.44;;;5.82;79.04
33151;BME280;19508;42.578;23.416;2023-03-03T06:07:58;93617.19;;;5.93;78.42
33151;BME280;19508;42.578;23.416;2023-03-03T06:10:24;93612.13;;;5.85;78.56
33151;BME280;19508;42.578;23.416;2023-03-03T06:12:50;93612.25;;;5.79;78.26
33151;BME280;19508;42.578;23.416;2023-03-03T06:15:16;93608.47;;;5.56;78.38
33151;BME280;19508;42.578;23.416;2023-03-03T06:17:42;93606.00;;;5.55;78.39
33151;BME280;19508;42.578;23.416;2023-03-03T06:20:07;93615.53;;;5.51;79.31
33151;BME280;19508;42.578;23.416;2023-03-03T06:22:33;93614.09;;;5.36;79.76
33151;BME280;19508;42.578;23.416;2023-03-03T06:24:58;93603.22;;;5.50;79.51
33151;BME280;19508;42.578;23.416;2023-03-03T06:27:24;93599.84;;;5.54;79.00
33151;BME280;19508;42.578;23.416;2023-03-03T06:29:49;93598.47;;;5.52;78.34
33151;BME280;19508;42.578;23.416;2023-03-03T06:32:15;93593.22;;;5.45;79.09
33151;BME280;19508;42.578;23.416;2023-03-03T06:34:40;93613.63;;;5.70;79.55
33151;BME280;19508;42.578;23.416;2023-03-03T06:37:06;93627.31;;;5.91;78.80
33151;BME280;19508;42.578;23.416;2023-03-03T06:39:31;93619.13;;;5.86;78.07
33151;BME280;19508;42.578;23.416;2023-03-03T06:41:56;93605.66;;;5.81;78.24
33151;BME280;19508;42.578;23.416;2023-03-03T06:44:22;93627.88;;;5.93;78.54
33151;BME280;19508;42.578;23.416;2023-03-03T06:46:47;93627.88;;;5.93;77.91
33151;BME280;19508;42.578;23.416;2023-03-03T06:49:16;93610.78;;;5.94;77.65
33151;BME280;19508;42.578;23.416;2023-03-03T06:51:41;93617.09;;;6.00;77.41
33151;BME280;19508;42.578;23.416;2023-03-03T06:54:12;93635.81;;;6.12;77.82
33151;BME280;19508;42.578;23.416;2023-03-03T06:56:38;93625.47;;;6.27;77.62
33151;BME280;19508;42.578;23.416;2023-03-03T06:59:20;93629.78;;;6.52;76.85
33151;BME280;19508;42.578;23.416;2023-03-03T07:01:47;93632.47;;;6.52;76.43
33151;BME280;19508;42.578;23.416;2023-03-03T07:04:32;93624.19;;;6.76;77.05
33151;BME280;19508;42.578;23.416;2023-03-03T07:07:15;93627.31;;;6.85;76.85
33151;BME280;19508;42.578;23.416;2023-03-03T07:09:43;93632.19;;;6.88;76.13
33151;BME280;19508;42.578;23.416;2023-03-03T07:12:19;93620.56;;;6.94;75.98
33151;BME280;19508;42.578;23.416;2023-03-03T07:14:49;93627.78;;;6.82;76.40
33151;BME280;19508;42.578;23.416;2023-03-03T07:17:21;93614.81;;;7.14;76.06
33151;BME280;19508;42.578;23.416;2023-03-03T07:19:47;93620.88;;;6.98;75.54
33151;BME280;19508;42.578;23.416;2023-03-03T07:24:40;93619.88;;;6.87;75.57
33151;BME280;19508;42.578;23.416;2023-03-03T07:29:39;93603.47;;;6.72;76.01
33151;BME280;19508;42.578;23.416;2023-03-03T07:32:23;93600.13;;;6.65;75.55
33151;BME280;19508;42.578;23.416;2023-03-03T07:34:51;93597.88;;;6.73;75.76
33151;BME280;19508;42.578;23.416;2023-03-03T07:37:44;93612.63;;;6.99;74.97
33151;BME280;19508;42.578;23.416;2023-03-03T07:43:12;93609.84;;;7.34;74.11
33151;BME280;19508;42.578;23.416;2023-03-03T07:45:42;93606.13;;;7.35;74.06
33151;BME280;19508;42.578;23.416;2023-03-03T07:48:23;93602.72;;;7.40;73.74
33151;BME280;19508;42.578;23.416;2023-03-03T07:50:49;93606.88;;;7.76;73.77
33151;BME280;19508;42.578;23.416;2023-03-03T07:53:26;93602.63;;;7.63;73.67
33151;BME280;19508;42.578;23.416;2023-03-03T07:55:53;93603.38;;;7.76;73.13
33151;BME280;19508;42.578;23.416;2023-03-03T07:58:26;93608.66;;;7.71;71.76
33151;BME280;19508;42.578;23.416;2023-03-03T08:01:36;93605.09;;;7.82;72.04
33151;BME280;19508;42.578;23.416;2023-03-03T08:06:50;93601.69;;;7.70;71.35
33151;BME280;19508;42.578;23.416;2023-03-03T08:12:39;93588.19;;;7.64;70.91
33151;BME280;19508;42.578;23.416;2023-03-03T08:15:21;93600.66;;;7.59;72.45
33151;BME280;19508;42.578;23.416;2023-03-03T08:17:49;93598.81;;;7.76;71.99
33151;BME280;19508;42.578;23.416;2023-03-03T08:23:03;93594.56;;;8.42;72.36
33151;BME280;19508;42.578;23.416;2023-03-03T08:25:29;93589.38;;;8.36;70.58
33151;BME280;19508;42.578;23.416;2023-03-03T08:27:54;93590.75;;;8.55;71.11
33151;BME280;19508;42.578;23.416;2023-03-03T08:30:20;93594.06;;;8.62;70.98
33151;BME280;19508;42.578;23.416;2023-03-03T08:32:45;93587.09;;;8.44;70.16
33151;BME280;19508;42.578;23.416;2023-03-03T08:35:11;93588.78;;;8.34;71.16
33151;BME280;19508;42.578;23.416;2023-03-03T08:37:36;93588.53;;;8.18;71.99
33151;BME280;19508;42.578;23.416;2023-03-03T08:40:02;93578.47;;;7.92;70.08
33151;BME280;19508;42.578;23.416;2023-03-03T08:42:28;93582.25;;;7.62;71.36
33151;BME280;19508;42.578;23.416;2023-03-03T08:44:54;93589.69;;;7.60;72.47
33151;BME280;19508;42.578;23.416;2023-03-03T08:47:20;93594.88;;;7.79;71.97
33151;BME280;19508;42.578;23.416;2023-03-03T08:49:45;93584.38;;;7.94;70.54
33151;BME280;19508;42.578;23.416;2023-03-03T08:52:10;93591.41;;;7.95;71.38
33151;BME280;19508;42.578;23.416;2023-03-03T08:54:36;93594.25;;;8.05;70.08
33151;BME280;19508;42.578;23.416;2023-03-03T08:57:01;93592.75;;;7.81;70.48
33151;BME280;19508;42.578;23.416;2023-03-03T08:59:27;93596.50;;;7.80;71.00
33151;BME280;19508;42.578;23.416;2023-03-03T09:01:52;93590.97;;;7.70;71.47
33151;BME280;19508;42.578;23.416;2023-03-03T09:04:17;93584.75;;;7.52;70.66
33151;BME280;19508;42.578;23.416;2023-03-03T09:06:43;93591.13;;;7.51;72.25
33151;BME280;19508;42.578;23.416;2023-03-03T09:09:08;93595.72;;;7.68;71.45
33151;BME280;19508;42.578;23.416;2023-03-03T09:11:34;93600.88;;;7.86;70.87
33151;BME280;19508;42.578;23.416;2023-03-03T09:14:19;93601.38;;;8.00;70.11
33151;BME280;19508;42.578;23.416;2023-03-03T09:16:53;93581.78;;;7.82;70.86
33151;BME280;19508;42.578;23.416;2023-03-03T09:19:30;93599.44;;;7.95;71.01
33151;BME280;19508;42.578;23.416;2023-03-03T09:22:23;93579.63;;;7.96;70.35
33151;BME280;19508;42.578;23.416;2023-03-03T09:24:52;93591.47;;;8.34;69.24
33151;BME280;19508;42.578;23.416;2023-03-03T09:29:51;93594.56;;;8.59;68.12
33151;BME280;19508;42.578;23.416;2023-03-03T09:32:38;93601.31;;;9.00;68.63
33151;BME280;19508;42.578;23.416;2023-03-03T09:35:35;93596.06;;;8.89;67.26
33151;BME280;19508;42.578;23.416;2023-03-03T09:38:32;93585.25;;;8.84;68.00
33151;BME280;19508;42.578;23.416;2023-03-03T09:41:05;93593.69;;;8.92;66.77
33151;BME280;19508;42.578;23.416;2023-03-03T10:03:46;93590.00;;;9.42;64.04
33151;BME280;19508;42.578;23.416;2023-03-03T10:08:54;93589.69;;;9.17;64.89
33151;BME280;19508;42.578;23.416;2023-03-03T10:11:34;93586.97;;;9.39;64.20
33151;BME280;19508;42.578;23.416;2023-03-03T10:14:20;93587.78;;;9.61;64.78
33151;BME280;19508;42.578;23.416;2023-03-03T10:19:43;93579.50;;;9.95;64.28
33151;BME280;19508;42.578;23.416;2023-03-03T10:22:23;93573.78;;;9.59;65.61
33151;BME280;19508;42.578;23.416;2023-03-03T10:27:45;93566.50;;;9.32;66.47
33151;BME280;19508;42.578;23.416;2023-03-03T10:33:24;93567.00;;;9.29;68.24
33151;BME280;19508;42.578;23.416;2023-03-03T10:36:22;93567.31;;;9.11;66.87
33151;BME280;19508;42.578;23.416;2023-03-03T10:50:29;93564.22;;;8.97;67.23
33151;BME280;19508;42.578;23.416;2023-03-03T10:58:26;93558.75;;;9.14;68.22
33151;BME280;19508;42.578;23.416;2023-03-03T11:15:58;93530.91;;;8.76;69.05
33151;BME280;19508;42.578;23.416;2023-03-03T11:21:15;93524.44;;;8.72;69.91
33151;BME280;19508;42.578;23.416;2023-03-03T11:23:57;93527.41;;;8.76;69.87
33151;BME280;19508;42.578;23.416;2023-03-03T11:29:26;93529.88;;;8.39;71.19
33151;BME280;19508;42.578;23.416;2023-03-03T11:34:56;93536.03;;;8.23;72.67
33151;BME280;19508;42.578;23.416;2023-03-03T11:37:34;93533.03;;;8.02;73.24
33151;BME280;19508;42.578;23.416;2023-03-03T11:40:11;93531.09;;;7.98;74.01
33151;BME280;19508;42.578;23.416;2023-03-03T11:42:57;93526.16;;;8.06;74.15
33151;BME280;19508;42.578;23.416;2023-03-03T11:45:36;93520.84;;;7.95;73.86
33151;BME280;19508;42.578;23.416;2023-03-03T11:48:17;93516.38;;;8.00;74.22
33151;BME280;19508;42.578;23.416;2023-03-03T11:51:07;93522.66;;;7.89;73.48
33151;BME280;19508;42.578;23.416;2023-03-03T11:53:58;93521.59;;;7.90;73.77
33151;BME280;19508;42.578;23.416;2023-03-03T11:56:34;93526.00;;;7.96;74.39
33151;BME280;19508;42.578;23.416;2023-03-03T12:01:36;93510.06;;;7.73;76.86
33151;BME280;19508;42.578;23.416;2023-03-03T12:04:14;93512.00;;;7.94;75.83
33151;BME280;19508;42.578;23.416;2023-03-03T12:12:47;93515.88;;;8.20;75.00
33151;BME280;19508;42.578;23.416;2023-03-03T12:15:27;93514.06;;;8.04;75.70
33151;BME280;19508;42.578;23.416;2023-03-03T12:18:18;93517.53;;;8.04;76.04
33151;BME280;19508;42.578;23.416;2023-03-03T12:23:30;93526.16;;;7.89;76.37
33151;BME280;19508;42.578;23.416;2023-03-03T12:28:49;93529.63;;;7.90;76.40
33151;BME280;19508;42.578;23.416;2023-03-03T12:31:39;93531.00;;;7.76;76.32
33151;BME280;19508;42.578;23.416;2023-03-03T12:34:20;93533.03;;;7.69;75.80
33151;BME280;19508;42.578;23.416;2023-03-03T12:47:45;93529.63;;;7.56;78.25
33151;BME280;19508;42.578;23.416;2023-03-03T12:50:37;93529.50;;;7.51;79.69
33151;BME280;19508;42.578;23.416;2023-03-03T13:03:55;93518.19;;;7.78;79.31
33151;BME280;19508;42.578;23.416;2023-03-03T13:06:29;93515.09;;;7.52;79.50
33151;BME280;19508;42.578;23.416;2023-03-03T13:11:52;93520.63;;;7.96;77.40
33151;BME280;19508;42.578;23.416;2023-03-03T13:14:52;93513.28;;;8.25;77.10
33151;BME280;19508;42.578;23.416;2023-03-03T13:17:31;93508.41;;;8.39;76.67
33151;BME280;19508;42.578;23.416;2023-03-03T13:20:11;93512.63;;;8.35;77.97
33151;BME280;19508;42.578;23.416;2023-03-03T13:25:46;93518.19;;;8.89;74.21
33151;BME280;19508;42.578;23.416;2023-03-03T13:31:20;93512.63;;;8.35;76.09
33151;BME280;19508;42.578;23.416;2023-03-03T13:33:57;93512.28;;;8.48;74.72
33151;BME280;19508;42.578;23.416;2023-03-03T13:36:25;93514.16;;;8.47;75.39
33151;BME280;19508;42.578;23.416;2023-03-03T13:39:01;93510.00;;;8.57;75.07
33151;BME280;19508;42.578;23.416;2023-03-03T13:44:10;93500.94;;;8.07;76.85
33151;BME280;19508;42.578;23.416;2023-03-03T13:46:41;93509.06;;;8.29;76.25
33151;BME280;19508;42.578;23.416;2023-03-03T13:52:05;93514.00;;;8.76;74.80
33151;BME280;19508;42.578;23.416;2023-03-03T14:05:16;93502.56;;;8.86;72.46
33151;BME280;19508;42.578;23.416;2023-03-03T14:08:05;93501.31;;;8.71;73.70
33151;BME280;19508;42.578;23.416;2023-03-03T14:10:46;93495.94;;;8.50;73.90
33151;BME280;19508;42.578;23.416;2023-03-03T14:13:29;93505.88;;;8.49;74.72
33151;BME280;19508;42.578;23.416;2023-03-03T14:16:13;93491.91;;;8.69;73.92
33151;BME280;19508;42.578;23.416;2023-03-03T14:19:02;93511.66;;;8.63;74.63
33151;BME280;19508;42.578;23.416;2023-03-03T14:21:34;93497.50;;;8.67;72.89
33151;BME280;19508;42.578;23.416;2023-03-03T14:26:28;93496.44;;;8.68;72.67
33151;BME280;19508;42.578;23.416;2023-03-03T14:29:12;93508.41;;;8.39;74.70
33151;BME280;19508;42.578;23.416;2023-03-03T14:31:41;93489.81;;;8.15;75.42
33151;BME280;19508;42.578;23.416;2023-03-03T14:36:50;93494.91;;;8.34;74.56
33151;BME280;19508;42.578;23.416;2023-03-03T14:39:38;93489.81;;;8.15;74.97
33151;BME280;19508;42.578;23.416;2023-03-03T14:42:29;93502.72;;;8.18;75.92
33151;BME280;19508;42.578;23.416;2023-03-03T14:44:55;93487.78;;;8.06;76.27
33151;BME280;19508;42.578;23.416;2023-03-03T14:47:27;93490.16;;;7.85;76.24
33151;BME280;19508;42.578;23.416;2023-03-03T14:49:54;93490.94;;;8.03;76.69
33151;BME280;19508;42.578;23.416;2023-03-03T14:52:28;93500.81;;;7.97;76.88
33151;BME280;19508;42.578;23.416;2023-03-03T14:54:57;93507.03;;;7.86;76.60
33151;BME280;19508;42.578;23.416;2023-03-03T14:57:40;93502.44;;;7.81;77.40
33151;BME280;19508;42.578;23.416;2023-03-03T15:02:43;93500.81;;;7.97;77.27
33151;BME280;19508;42.578;23.416;2023-03-03T15:05:24;93493.03;;;7.79;77.47
33151;BME280;19508;42.578;23.416;2023-03-03T15:10:43;93502.94;;;7.95;76.68
33151;BME280;19508;42.578;23.416;2023-03-03T15:13:23;93491.22;;;7.84;77.24
33151;BME280;19508;42.578;23.416;2023-03-03T15:16:01;93501.38;;;7.82;76.33
33151;BME280;19508;42.578;23.416;2023-03-03T15:18:30;93496.09;;;7.87;76.99
33151;BME280;19508;42.578;23.416;2023-03-03T15:21:12;93501.88;;;7.96;76.74
33151;BME280;19508;42.578;23.416;2023-03-03T15:29:34;93500.16;;;7.90;77.87
33151;BME280;19508;42.578;23.416;2023-03-03T15:32:17;93504.97;;;7.88;77.89
33151;BME280;19508;42.578;23.416;2023-03-03T15:40:02;93488.88;;;7.71;78.57
33151;BME280;19508;42.578;23.416;2023-03-03T15:42:52;93497.56;;;7.61;78.52
33151;BME280;19508;42.578;23.416;2023-03-03T15:56:47;93512.25;;;7.76;78.68
33151;BME280;19508;42.578;23.416;2023-03-03T16:02:14;93510.31;;;7.54;79.38
33151;BME280;19508;42.578;23.416;2023-03-03T16:10:45;93517.03;;;7.74;78.20
33151;BME280;19508;42.578;23.416;2023-03-03T16:22:11;93538.25;;;7.92;77.55
33151;BME280;19508;42.578;23.416;2023-03-03T16:28:23;93532.31;;;7.90;77.95
33151;BME280;19508;42.578;23.416;2023-03-03T16:30:59;93541.06;;;7.85;78.21
33151;BME280;19508;42.578;23.416;2023-03-03T16:39:08;93547.03;;;7.87;78.31
33151;BME280;19508;42.578;23.416;2023-03-03T16:41:46;93552.81;;;7.96;77.56
33151;BME280;19508;42.578;23.416;2023-03-03T16:50:26;93561.66;;;7.80;78.57
33151;BME280;19508;42.578;23.416;2023-03-03T16:55:55;93566.66;;;7.76;78.23
33151;BME280;19508;42.578;23.416;2023-03-03T17:03:51;93574.66;;;7.88;78.00
33151;BME280;19508;42.578;23.416;2023-03-03T17:06:22;93581.53;;;7.84;78.11
33151;BME280;19508;42.578;23.416;2023-03-03T17:16:59;93589.03;;;7.99;76.85
33151;BME280;19508;42.578;23.416;2023-03-03T17:19:59;93586.66;;;8.02;77.05
33151;BME280;19508;42.578;23.416;2023-03-03T17:22:51;93586.75;;;7.90;77.64
33151;BME280;19508;42.578;23.416;2023-03-03T17:25:29;93586.22;;;7.77;78.25
33151;BME280;19508;42.578;23.416;2023-03-03T17:36:13;93592.91;;;7.74;78.51
33151;BME280;19508;42.578;23.416;2023-03-03T17:56:17;93615.44;;;7.90;77.91
33151;BME280;19508;42.578;23.416;2023-03-03T18:09:20;93623.88;;;7.53;79.66
33151;BME280;19508;42.578;23.416;2023-03-03T18:17:51;93637.28;;;7.53;78.65
33151;BME280;19508;42.578;23.416;2023-03-03T18:25:56;93642.03;;;7.51;78.45